sensor_id;sensor_type;location;lat;lon;timestamp;P1;durP1;ratioP1;P2;durP2;ratioP2
21927;SDS011;11128;51.096;17.190;2023-07-30T00:02:37;3.17;;;1.30;;
21927;SDS011;11128;51.096;17.190;2023-07-30T00:07:39;1.75;;;1.35;;
21927;SDS011;11128;51.096;17.190;2023-07-30T00:12:40;1.27;;;1.05;;
21927;SDS011;11128;51.096;17.190;2023-07-30T00:17:42;2.17;;;1.20;;
21927;SDS011;11128;51.096;17.190;2023-07-30T00:22:43;1.67;;;0.98;;
21927;SDS011;11128;51.096;17.190;2023-07-30T00:27:45;1.70;;;1.10;;
21927;SDS011;11128;51.096;17.190;2023-07-30T00:32:46;2.08;;;1.20;;
21927;SDS011;11128;51.096;17.190;2023-07-30T00:37:48;2.88;;;1.23;;
21927;SDS011;11128;51.096;17.190;2023-07-30T00:42:49;2.53;;;1.20;;
21927;SDS011;11128;51.096;17.190;2023-07-30T00:47:51;3.15;;;1.17;;
21927;SDS011;11128;51.096;17.190;2023-07-30T00:52:52;2.67;;;1.50;;
21927;SDS011;11128;51.096;17.190;2023-07-30T00:57:54;1.42;;;1.10;;
21927;SDS011;11128;51.096;17.190;2023-07-30T01:02:55;1.35;;;0.90;;
21927;SDS011;11128;51.096;17.190;2023-07-30T01:07:56;2.50;;;1.27;;
21927;SDS011;11128;51.096;17.190;2023-07-30T01:13:01;3.72;;;1.63;;
21927;SDS011;11128;51.096;17.190;2023-07-30T01:18:04;1.63;;;1.13;;
21927;SDS011;11128;51.096;17.190;2023-07-30T01:23:05;2.78;;;1.25;;
21927;SDS011;11128;51.096;17.190;2023-07-30T01:28:07;2.15;;;1.30;;
21927;SDS011;11128;51.096;17.190;2023-07-30T01:33:13;2.28;;;1.50;;
21927;SDS011;11128;51.096;17.190;2023-07-30T01:38:14;1.70;;;1.27;;
21927;SDS011;11128;51.096;17.190;2023-07-30T01:43:17;2.10;;;1.17;;
21927;SDS011;11128;51.096;17.190;2023-07-30T01:48:18;1.63;;;0.95;;
21927;SDS011;11128;51.096;17.190;2023-07-30T01:53:20;3.20;;;1.50;;
21927;SDS011;11128;51.096;17.190;2023-07-30T01:58:21;3.15;;;1.75;;
21927;SDS011;11128;51.096;17.190;2023-07-30T02:03:23;1.83;;;1.20;;
21927;SDS011;11128;51.096;17.190;2023-07-30T02:08:24;2.20;;;1.10;;
21927;SDS011;11128;51.096;17.190;2023-07-30T02:13:25;2.83;;;1.20;;
21927;SDS011;11128;51.096;17.190;2023-07-30T02:18:27;4.78;;;1.23;;
21927;SDS011;11128;51.096;17.190;2023-07-30T02:23:28;3.42;;;1.30;;
21927;SDS011;11128;51.096;17.190;2023-07-30T02:28:30;2.65;;;1.27;;
21927;SDS011;11128;51.096;17.190;2023-07-30T02:33:31;2.58;;;1.20;;
21927;SDS011;11128;51.096;17.190;2023-07-30T02:38:32;2.78;;;1.23;;
21927;SDS011;11128;51.096;17.190;2023-07-30T02:43:34;2.55;;;1.30;;
21927;SDS011;11128;51.096;17.190;2023-07-30T02:48:35;4.38;;;1.30;;
21927;SDS011;11128;51.096;17.190;2023-07-30T02:53:36;1.63;;;1.02;;
21927;SDS011;11128;51.096;17.190;2023-07-30T02:58:38;3.85;;;1.35;;
21927;SDS011;11128;51.096;17.190;2023-07-30T03:03:39;3.00;;;1.08;;
21927;SDS011;11128;51.096;17.190;2023-07-30T03:08:41;3.47;;;1.38;;
21927;SDS011;11128;51.096;17.190;2023-07-30T03:13:42;1.95;;;1.10;;
21927;SDS011;11128;51.096;17.190;2023-07-30T03:18:43;1.73;;;1.13;;
21927;SDS011;11128;51.096;17.190;2023-07-30T03:23:45;2.35;;;1.10;;
21927;SDS011;11128;51.096;17.190;2023-07-30T03:28:49;2.05;;;1.20;;
21927;SDS011;11128;51.096;17.190;2023-07-30T03:33:50;2.17;;;1.10;;
21927;SDS011;11128;51.096;17.190;2023-07-30T03:38:51;1.40;;;1.25;;
21927;SDS011;11128;51.096;17.190;2023-07-30T03:43:53;2.75;;;1.58;;
21927;SDS011;11128;51.096;17.190;2023-07-30T03:48:54;1.67;;;1.05;;
21927;SDS011;11128;51.096;17.190;2023-07-30T03:53:56;3.22;;;1.02;;
21927;SDS011;11128;51.096;17.190;2023-07-30T03:58:57;1.65;;;0.90;;
21927;SDS011;11128;51.096;17.190;2023-07-30T04:03:58;2.90;;;1.13;;
21927;SDS011;11128;51.096;17.190;2023-07-30T04:09:00;2.22;;;1.52;;
21927;SDS011;11128;51.096;17.190;2023-07-30T04:14:01;2.53;;;1.58;;
21927;SDS011;11128;51.096;17.190;2023-07-30T04:19:05;4.70;;;1.00;;
21927;SDS011;11128;51.096;17.190;2023-07-30T04:24:07;3.38;;;1.23;;
21927;SDS011;11128;51.096;17.190;2023-07-30T04:29:08;3.25;;;1.17;;
21927;SDS011;11128;51.096;17.190;2023-07-30T04:34:11;1.58;;;1.17;;
21927;SDS011;11128;51.096;17.190;2023-07-30T04:39:12;1.40;;;1.20;;
21927;SDS011;11128;51.096;17.190;2023-07-30T04:44:14;2.95;;;1.23;;
21927;SDS011;11128;51.096;17.190;2023-07-30T04:49:15;3.00;;;1.10;;
21927;SDS011;11128;51.096;17.190;2023-07-30T04:54:17;4.57;;;1.10;;
21927;SDS011;11128;51.096;17.190;2023-07-30T04:59:18;1.65;;;1.23;;
21927;SDS011;11128;51.096;17.190;2023-07-30T05:04:20;6.30;;;1.35;;
21927;SDS011;11128;51.096;17.190;2023-07-30T05:09:21;5.38;;;1.10;;
21927;SDS011;11128;51.096;17.190;2023-07-30T05:14:23;3.63;;;1.60;;
21927;SDS011;11128;51.096;17.190;2023-07-30T05:19:24;2.88;;;1.73;;
21927;SDS011;11128;51.096;17.190;2023-07-30T05:24:26;3.35;;;1.40;;
21927;SDS011;11128;51.096;17.190;2023-07-30T05:31:16;2.63;;;1.25;;
21927;SDS011;11128;51.096;17.190;2023-07-30T05:36:17;2.38;;;1.00;;
21927;SDS011;11128;51.096;17.190;2023-07-30T05:41:18;3.13;;;1.23;;
21927;SDS011;11128;51.096;17.190;2023-07-30T05:46:22;4.70;;;1.42;;
21927;SDS011;11128;51.096;17.190;2023-07-30T05:51:23;2.72;;;1.10;;
21927;SDS011;11128;51.096;17.190;2023-07-30T05:56:24;1.50;;;1.13;;
21927;SDS011;11128;51.096;17.190;2023-07-30T06:01:26;3.70;;;1.40;;
21927;SDS011;11128;51.096;17.190;2023-07-30T06:06:28;2.70;;;1.38;;
21927;SDS011;11128;51.096;17.190;2023-07-30T06:11:30;1.75;;;0.90;;
21927;SDS011;11128;51.096;17.190;2023-07-30T06:16:31;1.95;;;1.15;;
21927;SDS011;11128;51.096;17.190;2023-07-30T06:21:33;3.53;;;1.30;;
21927;SDS011;11128;51.096;17.190;2023-07-30T06:26:34;2.92;;;1.70;;
21927;SDS011;11128;51.096;17.190;2023-07-30T06:31:35;2.85;;;1.40;;
21927;SDS011;11128;51.096;17.190;2023-07-30T06:36:37;4.50;;;1.17;;
21927;SDS011;11128;51.096;17.190;2023-07-30T06:41:38;2.67;;;1.55;;
21927;SDS011;11128;51.096;17.190;2023-07-30T06:46:41;2.17;;;1.50;;
21927;SDS011;11128;51.096;17.190;2023-07-30T06:51:42;3.25;;;1.40;;
21927;SDS011;11128;51.096;17.190;2023-07-30T06:56:43;4.40;;;1.70;;
21927;SDS011;11128;51.096;17.190;2023-07-30T07:01:45;4.75;;;1.80;;
21927;SDS011;11128;51.096;17.190;2023-07-30T07:06:46;3.38;;;1.48;;
21927;SDS011;11128;51.096;17.190;2023-07-30T07:11:48;3.17;;;1.58;;
21927;SDS011;11128;51.096;17.190;2023-07-30T07:16:49;2.42;;;1.42;;
21927;SDS011;11128;51.096;17.190;2023-07-30T07:21:50;2.58;;;1.67;;
21927;SDS011;11128;51.096;17.190;2023-07-30T07:26:52;2.60;;;1.45;;
21927;SDS011;11128;51.096;17.190;2023-07-30T07:31:53;4.00;;;1.75;;
21927;SDS011;11128;51.096;17.190;2023-07-30T07:36:55;1.63;;;1.50;;
21927;SDS011;11128;51.096;17.190;2023-07-30T07:41:56;1.63;;;1.45;;
21927;SDS011;11128;51.096;17.190;2023-07-30T07:46:57;3.00;;;1.70;;
21927;SDS011;11128;51.096;17.190;2023-07-30T07:51:59;6.60;;;1.60;;
21927;SDS011;11128;51.096;17.190;2023-07-30T07:57:00;6.15;;;1.65;;
21927;SDS011;11128;51.096;17.190;2023-07-30T08:02:02;2.22;;;1.38;;
21927;SDS011;11128;51.096;17.190;2023-07-30T08:07:04;2.58;;;1.38;;
21927;SDS011;11128;51.096;17.190;2023-07-30T08:12:05;2.72;;;1.40;;
21927;SDS011;11128;51.096;17.190;2023-07-30T08:17:07;1.73;;;1.23;;
21927;SDS011;11128;51.096;17.190;2023-07-30T08:22:08;2.63;;;1.50;;
21927;SDS011;11128;51.096;17.190;2023-07-30T08:27:10;3.42;;;1.35;;
21927;SDS011;11128;51.096;17.190;2023-07-30T08:32:11;3.65;;;1.30;;
21927;SDS011;11128;51.096;17.190;2023-07-30T08:37:12;3.25;;;1.58;;
21927;SDS011;11128;51.096;17.190;2023-07-30T08:42:14;1.60;;;1.33;;
21927;SDS011;11128;51.096;17.190;2023-07-30T08:47:15;2.10;;;1.33;;
21927;SDS011;11128;51.096;17.190;2023-07-30T08:52:17;2.53;;;1.10;;
21927;SDS011;11128;51.096;17.190;2023-07-30T08:57:22;1.63;;;1.02;;
21927;SDS011;11128;51.096;17.190;2023-07-30T09:02:31;2.15;;;1.35;;
21927;SDS011;11128;51.096;17.190;2023-07-30T09:07:43;1.60;;;1.10;;
21927;SDS011;11128;51.096;17.190;2023-07-30T09:12:45;1.35;;;1.13;;
21927;SDS011;11128;51.096;17.190;2023-07-30T09:17:54;1.83;;;1.13;;
21927;SDS011;11128;51.096;17.190;2023-07-30T09:22:56;1.98;;;1.30;;
21927;SDS011;11128;51.096;17.190;2023-07-30T09:27:58;2.63;;;1.23;;
21927;SDS011;11128;51.096;17.190;2023-07-30T09:33:00;1.88;;;1.02;;
21927;SDS011;11128;51.096;17.190;2023-07-30T09:38:02;2.15;;;1.13;;
21927;SDS011;11128;51.096;17.190;2023-07-30T09:43:04;0.98;;;0.80;;
21927;SDS011;11128;51.096;17.190;2023-07-30T09:48:06;3.33;;;1.13;;
21927;SDS011;11128;51.096;17.190;2023-07-30T09:53:08;0.90;;;0.90;;
21927;SDS011;11128;51.096;17.190;2023-07-30T09:58:11;3.08;;;1.23;;
21927;SDS011;11128;51.096;17.190;2023-07-30T10:03:14;2.40;;;1.00;;
21927;SDS011;11128;51.096;17.190;2023-07-30T10:08:19;3.92;;;1.27;;
21927;SDS011;11128;51.096;17.190;2023-07-30T10:13:25;3.75;;;1.10;;
21927;SDS011;11128;51.096;17.190;2023-07-30T10:18:37;2.22;;;0.95;;
21927;SDS011;11128;51.096;17.190;2023-07-30T10:23:46;1.60;;;1.45;;
21927;SDS011;11128;51.096;17.190;2023-07-30T10:28:53;2.70;;;1.20;;
21927;SDS011;11128;51.096;17.190;2023-07-30T10:34:10;2.42;;;1.30;;
21927;SDS011;11128;51.096;17.190;2023-07-30T10:39:19;1.75;;;1.15;;
21927;SDS011;11128;51.096;17.190;2023-07-30T10:44:26;1.00;;;0.90;;
21927;SDS011;11128;51.096;17.190;2023-07-30T10:49:29;1.10;;;0.90;;
21927;SDS011;11128;51.096;17.190;2023-07-30T10:54:36;4.72;;;1.10;;
21927;SDS011;11128;51.096;17.190;2023-07-30T10:59:38;1.20;;;0.90;;
21927;SDS011;11128;51.096;17.190;2023-07-30T11:04:40;1.15;;;1.10;;
21927;SDS011;11128;51.096;17.190;2023-07-30T11:09:41;1.30;;;1.20;;
21927;SDS011;11128;51.096;17.190;2023-07-30T11:14:43;1.55;;;1.15;;
21927;SDS011;11128;51.096;17.190;2023-07-30T11:19:44;1.30;;;1.20;;
21927;SDS011;11128;51.096;17.190;2023-07-30T11:24:45;2.05;;;1.10;;
21927;SDS011;11128;51.096;17.190;2023-07-30T11:29:56;1.67;;;0.90;;
21927;SDS011;11128;51.096;17.190;2023-07-30T11:34:57;3.80;;;1.20;;
21927;SDS011;11128;51.096;17.190;2023-07-30T11:40:00;1.42;;;1.10;;
21927;SDS011;11128;51.096;17.190;2023-07-30T11:45:17;1.23;;;0.60;;
21927;SDS011;11128;51.096;17.190;2023-07-30T11:50:24;1.05;;;0.80;;
21927;SDS011;11128;51.096;17.190;2023-07-30T11:55:25;2.13;;;0.90;;
21927;SDS011;11128;51.096;17.190;2023-07-30T12:00:39;2.15;;;1.42;;
21927;SDS011;11128;51.096;17.190;2023-07-30T12:05:41;1.55;;;1.17;;
21927;SDS011;11128;51.096;17.190;2023-07-30T12:10:43;1.33;;;1.00;;
21927;SDS011;11128;51.096;17.190;2023-07-30T12:15:52;1.98;;;1.13;;
21927;SDS011;11128;51.096;17.190;2023-07-30T12:20:54;1.08;;;0.80;;
21927;SDS011;11128;51.096;17.190;2023-07-30T12:25:55;4.15;;;1.20;;
21927;SDS011;11128;51.096;17.190;2023-07-30T12:30:57;3.45;;;1.40;;
21927;SDS011;11128;51.096;17.190;2023-07-30T12:35:59;1.45;;;1.20;;
21927;SDS011;11128;51.096;17.190;2023-07-30T12:41:00;2.17;;;1.15;;
21927;SDS011;11128;51.096;17.190;2023-07-30T12:46:01;1.70;;;1.38;;
21927;SDS011;11128;51.096;17.190;2023-07-30T12:51:02;3.17;;;2.30;;
21927;SDS011;11128;51.096;17.190;2023-07-30T12:56:05;2.15;;;1.60;;
21927;SDS011;11128;51.096;17.190;2023-07-30T13:01:06;1.38;;;1.02;;
21927;SDS011;11128;51.096;17.190;2023-07-30T13:06:27;1.58;;;0.90;;
21927;SDS011;11128;51.096;17.190;2023-07-30T13:11:28;1.23;;;1.02;;
21927;SDS011;11128;51.096;17.190;2023-07-30T13:16:30;1.27;;;1.02;;
21927;SDS011;11128;51.096;17.190;2023-07-30T13:21:32;2.42;;;1.10;;
21927;SDS011;11128;51.096;17.190;2023-07-30T13:26:35;1.10;;;0.88;;
21927;SDS011;11128;51.096;17.190;2023-07-30T13:31:36;0.80;;;0.75;;
21927;SDS011;11128;51.096;17.190;2023-07-30T13:36:38;1.33;;;1.02;;
21927;SDS011;11128;51.096;17.190;2023-07-30T13:41:39;1.00;;;0.90;;
21927;SDS011;11128;51.096;17.190;2023-07-30T13:46:41;1.33;;;0.90;;
21927;SDS011;11128;51.096;17.190;2023-07-30T13:51:42;0.85;;;0.80;;
21927;SDS011;11128;51.096;17.190;2023-07-30T13:56:43;1.85;;;0.90;;
21927;SDS011;11128;51.096;17.190;2023-07-30T14:01:45;0.93;;;0.80;;
21927;SDS011;11128;51.096;17.190;2023-07-30T14:06:46;1.38;;;1.10;;
21927;SDS011;11128;51.096;17.190;2023-07-30T14:11:48;1.38;;;0.90;;
21927;SDS011;11128;51.096;17.190;2023-07-30T14:16:49;2.22;;;0.95;;
21927;SDS011;11128;51.096;17.190;2023-07-30T14:21:50;1.70;;;0.90;;
21927;SDS011;11128;51.096;17.190;2023-07-30T14:26:52;1.40;;;1.30;;
21927;SDS011;11128;51.096;17.190;2023-07-30T14:31:53;1.95;;;1.27;;
21927;SDS011;11128;51.096;17.190;2023-07-30T14:36:55;1.40;;;1.23;;
21927;SDS011;11128;51.096;17.190;2023-07-30T14:41:56;1.00;;;0.93;;
21927;SDS011;11128;51.096;17.190;2023-07-30T14:46:57;1.33;;;1.05;;
21927;SDS011;11128;51.096;17.190;2023-07-30T14:52:00;1.15;;;1.08;;
21927;SDS011;11128;51.096;17.190;2023-07-30T14:57:02;1.80;;;1.30;;
21927;SDS011;11128;51.096;17.190;2023-07-30T15:02:03;1.63;;;1.10;;
21927;SDS011;11128;51.096;17.190;2023-07-30T15:07:05;1.20;;;1.00;;
21927;SDS011;11128;51.096;17.190;2023-07-30T15:12:06;1.02;;;0.80;;
21927;SDS011;11128;51.096;17.190;2023-07-30T15:17:08;1.05;;;0.95;;
21927;SDS011;11128;51.096;17.190;2023-07-30T15:22:09;1.33;;;0.95;;
21927;SDS011;11128;51.096;17.190;2023-07-30T15:27:11;1.20;;;0.93;;
21927;SDS011;11128;51.096;17.190;2023-07-30T15:32:12;1.40;;;1.10;;
21927;SDS011;11128;51.096;17.190;2023-07-30T15:37:13;2.65;;;1.00;;
21927;SDS011;11128;51.096;17.190;2023-07-30T15:42:15;1.13;;;0.80;;
21927;SDS011;11128;51.096;17.190;2023-07-30T15:47:16;1.33;;;0.85;;
21927;SDS011;11128;51.096;17.190;2023-07-30T15:52:18;1.38;;;1.00;;
21927;SDS011;11128;51.096;17.190;2023-07-30T15:57:19;2.13;;;0.70;;
21927;SDS011;11128;51.096;17.190;2023-07-30T16:02:20;1.23;;;0.82;;
21927;SDS011;11128;51.096;17.190;2023-07-30T16:07:22;1.13;;;0.80;;
21927;SDS011;11128;51.096;17.190;2023-07-30T16:12:23;0.75;;;0.68;;
21927;SDS011;11128;51.096;17.190;2023-07-30T16:17:25;0.90;;;0.63;;
21927;SDS011;11128;51.096;17.190;2023-07-30T16:22:26;2.15;;;0.60;;
21927;SDS011;11128;51.096;17.190;2023-07-30T16:27:28;1.63;;;0.73;;
21927;SDS011;11128;51.096;17.190;2023-07-30T16:32:29;0.85;;;0.63;;
21927;SDS011;11128;51.096;17.190;2023-07-30T16:37:30;2.28;;;0.80;;
21927;SDS011;11128;51.096;17.190;2023-07-30T16:42:32;1.25;;;0.68;;
21927;SDS011;11128;51.096;17.190;2023-07-30T16:47:33;1.67;;;0.70;;
21927;SDS011;11128;51.096;17.190;2023-07-30T16:52:34;1.50;;;0.90;;
21927;SDS011;11128;51.096;17.190;2023-07-30T16:57:36;0.98;;;0.65;;
21927;SDS011;11128;51.096;17.190;2023-07-30T17:02:37;1.58;;;0.70;;
21927;SDS011;11128;51.096;17.190;2023-07-30T17:07:43;1.40;;;0.63;;
21927;SDS011;11128;51.096;17.190;2023-07-30T17:12:45;2.17;;;0.65;;
21927;SDS011;11128;51.096;17.190;2023-07-30T17:17:47;1.75;;;0.63;;
21927;SDS011;11128;51.096;17.190;2023-07-30T17:22:49;0.85;;;0.68;;
21927;SDS011;11128;51.096;17.190;2023-07-30T17:27:50;0.95;;;0.80;;
21927;SDS011;11128;51.096;17.190;2023-07-30T17:32:52;1.17;;;0.70;;
21927;SDS011;11128;51.096;17.190;2023-07-30T17:37:53;1.17;;;0.90;;
21927;SDS011;11128;51.096;17.190;2023-07-30T17:42:54;0.95;;;0.75;;
21927;SDS011;11128;51.096;17.190;2023-07-30T17:47:56;1.67;;;0.80;;
21927;SDS011;11128;51.096;17.190;2023-07-30T17:52:57;1.02;;;0.68;;
21927;SDS011;11128;51.096;17.190;2023-07-30T17:57:59;1.42;;;1.00;;
21927;SDS011;11128;51.096;17.190;2023-07-30T18:03:00;1.95;;;0.77;;
21927;SDS011;11128;51.096;17.190;2023-07-30T18:08:02;3.13;;;0.47;;
21927;SDS011;11128;51.096;17.190;2023-07-30T18:13:04;0.50;;;0.50;;
21927;SDS011;11128;51.096;17.190;2023-07-30T18:18:05;0.82;;;0.80;;
21927;SDS011;11128;51.096;17.190;2023-07-30T18:23:07;1.98;;;0.75;;
21927;SDS011;11128;51.096;17.190;2023-07-30T18:28:09;0.95;;;0.63;;
21927;SDS011;11128;51.096;17.190;2023-07-30T18:33:10;2.75;;;0.80;;
21927;SDS011;11128;51.096;17.190;2023-07-30T18:38:11;1.48;;;0.75;;
21927;SDS011;11128;51.096;17.190;2023-07-30T18:43:13;1.08;;;0.70;;
21927;SDS011;11128;51.096;17.190;2023-07-30T18:48:14;1.77;;;0.93;;
21927;SDS011;11128;51.096;17.190;2023-07-30T18:53:22;1.42;;;0.85;;
21927;SDS011;11128;51.096;17.190;2023-07-30T18:58:23;3.50;;;0.90;;
21927;SDS011;11128;51.096;17.190;2023-07-30T19:03:24;1.08;;;0.95;;
21927;SDS011;11128;51.096;17.190;2023-07-30T19:08:26;1.15;;;0.65;;
21927;SDS011;11128;51.096;17.190;2023-07-30T19:13:27;1.33;;;0.80;;
21927;SDS011;11128;51.096;17.190;2023-07-30T19:18:30;1.55;;;1.10;;
21927;SDS011;11128;51.096;17.190;2023-07-30T19:23:32;2.17;;;1.15;;
21927;SDS011;11128;51.096;17.190;2023-07-30T19:28:33;3.22;;;1.27;;
21927;SDS011;11128;51.096;17.190;2023-07-30T19:33:36;2.15;;;1.10;;
21927;SDS011;11128;51.096;17.190;2023-07-30T19:38:42;1.52;;;1.08;;
21927;SDS011;11128;51.096;17.190;2023-07-30T19:43:44;5.88;;;1.40;;
21927;SDS011;11128;51.096;17.190;2023-07-30T19:48:47;3.60;;;1.90;;
21927;SDS011;11128;51.096;17.190;2023-07-30T19:53:48;3.42;;;1.27;;
21927;SDS011;11128;51.096;17.190;2023-07-30T19:58:50;2.38;;;1.40;;
21927;SDS011;11128;51.096;17.190;2023-07-30T20:03:54;2.33;;;1.50;;
21927;SDS011;11128;51.096;17.190;2023-07-30T20:08:55;2.55;;;1.48;;
21927;SDS011;11128;51.096;17.190;2023-07-30T20:13:56;2.30;;;1.52;;
21927;SDS011;11128;51.096;17.190;2023-07-30T20:18:58;3.60;;;1.60;;
21927;SDS011;11128;51.096;17.190;2023-07-30T20:23:59;1.92;;;1.38;;
21927;SDS011;11128;51.096;17.190;2023-07-30T20:29:00;1.00;;;0.90;;
21927;SDS011;11128;51.096;17.190;2023-07-30T20:34:02;1.52;;;1.00;;
21927;SDS011;11128;51.096;17.190;2023-07-30T20:39:04;2.53;;;1.48;;
21927;SDS011;11128;51.096;17.190;2023-07-30T20:44:05;3.15;;;1.05;;
21927;SDS011;11128;51.096;17.190;2023-07-30T20:49:08;1.77;;;1.15;;
21927;SDS011;11128;51.096;17.190;2023-07-30T20:54:09;1.08;;;0.98;;
21927;SDS011;11128;51.096;17.190;2023-07-30T20:59:11;2.72;;;1.02;;
21927;SDS011;11128;51.096;17.190;2023-07-30T21:04:12;3.00;;;1.00;;
21927;SDS011;11128;51.096;17.190;2023-07-30T21:09:14;1.33;;;1.02;;
21927;SDS011;11128;51.096;17.190;2023-07-30T21:14:16;1.08;;;0.98;;
21927;SDS011;11128;51.096;17.190;2023-07-30T21:19:17;3.53;;;1.02;;
21927;SDS011;11128;51.096;17.190;2023-07-30T21:24:18;1.17;;;0.93;;
21927;SDS011;11128;51.096;17.190;2023-07-30T21:29:20;2.95;;;1.10;;
21927;SDS011;11128;51.096;17.190;2023-07-30T21:34:21;2.35;;;1.02;;
21927;SDS011;11128;51.096;17.190;2023-07-30T21:39:22;0.90;;;0.50;;
21927;SDS011;11128;51.096;17.190;2023-07-30T21:44:23;1.65;;;0.60;;
21927;SDS011;11128;51.096;17.190;2023-07-30T21:49:25;1.65;;;0.75;;
21927;SDS011;11128;51.096;17.190;2023-07-30T21:54:26;1.65;;;0.60;;
21927;SDS011;11128;51.096;17.190;2023-07-30T21:59:27;0.90;;;0.68;;
21927;SDS011;11128;51.096;17.190;2023-07-30T22:04:29;2.58;;;0.90;;
21927;SDS011;11128;51.096;17.190;2023-07-30T22:09:30;0.88;;;0.70;;
21927;SDS011;11128;51.096;17.190;2023-07-30T22:14:32;0.80;;;0.47;;
21927;SDS011;11128;51.096;17.190;2023-07-30T22:19:34;0.73;;;0.60;;
21927;SDS011;11128;51.096;17.190;2023-07-30T22:24:35;2.60;;;0.68;;
21927;SDS011;11128;51.096;17.190;2023-07-30T22:29:37;2.00;;;0.75;;
21927;SDS011;11128;51.096;17.190;2023-07-30T22:34:38;1.95;;;0.75;;
21927;SDS011;11128;51.096;17.190;2023-07-30T22:39:39;2.53;;;0.77;;
21927;SDS011;11128;51.096;17.190;2023-07-30T22:44:40;1.08;;;0.70;;
21927;SDS011;11128;51.096;17.190;2023-07-30T22:49:42;2.45;;;0.90;;
21927;SDS011;11128;51.096;17.190;2023-07-30T22:54:43;2.40;;;1.13;;
21927;SDS011;11128;51.096;17.190;2023-07-30T22:59:44;1.40;;;0.80;;
21927;SDS011;11128;51.096;17.190;2023-07-30T23:04:46;3.08;;;1.30;;
21927;SDS011;11128;51.096;17.190;2023-07-30T23:09:47;1.30;;;1.15;;
21927;SDS011;11128;51.096;17.190;2023-07-30T23:14:48;3.47;;;1.48;;
21927;SDS011;11128;51.096;17.190;2023-07-30T23:19:50;1.63;;;1.20;;
21927;SDS011;11128;51.096;17.190;2023-07-30T23:24:54;4.82;;;1.70;;
21927;SDS011;11128;51.096;17.190;2023-07-30T23:29:55;3.58;;;1.50;;
21927;SDS011;11128;51.096;17.190;2023-07-30T23:34:57;2.55;;;1.38;;
21927;SDS011;11128;51.096;17.190;2023-07-30T23:39:59;3.10;;;2.00;;
21927;SDS011;11128;51.096;17.190;2023-07-30T23:45:00;3.35;;;1.70;;
21927;SDS011;11128;51.096;17.190;2023-07-30T23:50:02;1.90;;;1.33;;
21927;SDS011;11128;51.096;17.190;2023-07-30T23:55:03;1.10;;;1.00;;
